sensor_id;sensor_type;location;lat;lon;timestamp;temperature;humidity
15288;DHT22;7745;48.708;9.026;2022-12-31T00:00:38;11.10;99.90
15288;DHT22;7745;48.708;9.026;2022-12-31T00:03:08;11.20;99.90
15288;DHT22;7745;48.708;9.026;2022-12-31T00:05:36;11.20;99.90
15288;DHT22;7745;48.708;9.026;2022-12-31T00:08:03;11.30;99.90
15288;DHT22;7745;48.708;9.026;2022-12-31T00:10:30;11.10;99.90
15288;DHT22;7745;48.708;9.026;2022-12-31T00:13:04;11.10;99.90
15288;DHT22;7745;48.708;9.026;2022-12-31T00:15:31;11.20;99.90
15288;DHT22;7745;48.708;9.026;2022-12-31T00:17:57;11.40;99.90
15288;DHT22;7745;48.708;9.026;2022-12-31T00:20:24;11.20;99.90
15288;DHT22;7745;48.708;9.026;2022-12-31T00:22:53;11.20;99.90
15288;DHT22;7745;48.708;9.026;2022-12-31T00:25:19;11.70;99.90
15288;DHT22;7745;48.708;9.026;2022-12-31T00:27:46;11.30;99.90
15288;DHT22;7745;48.708;9.026;2022-12-31T00:30:14;11.40;99.90
15288;DHT22;7745;48.708;9.026;2022-12-31T00:32:41;11.40;99.90
15288;DHT22;7745;48.708;9.026;2022-12-31T00:35:08;11.40;99.90
15288;DHT22;7745;48.708;9.026;2022-12-31T00:37:35;11.40;99.90
15288;DHT22;7745;48.708;9.026;2022-12-31T00:40:03;11.60;99.90
15288;DHT22;7745;48.708;9.026;2022-12-31T00:42:31;11.50;99.90
15288;DHT22;7745;48.708;9.026;2022-12-31T00:44:57;11.60;99.90
15288;DHT22;7745;48.708;9.026;2022-12-31T00:47:24;11.70;99.90
15288;DHT22;7745;48.708;9.026;2022-12-31T00:49:51;11.80;99.90
15288;DHT22;7745;48.708;9.026;2022-12-31T00:52:18;11.90;99.90
15288;DHT22;7745;48.708;9.026;2022-12-31T00:54:45;11.80;99.90
15288;DHT22;7745;48.708;9.026;2022-12-31T00:57:14;12.00;99.90
15288;DHT22;7745;48.708;9.026;2022-12-31T00:59:41;12.00;99.90
15288;DHT22;7745;48.708;9.026;2022-12-31T01:02:08;12.10;99.90
15288;DHT22;7745;48.708;9.026;2022-12-31T01:04:35;12.10;99.90
15288;DHT22;7745;48.708;9.026;2022-12-31T01:07:02;12.20;99.90
15288;DHT22;7745;48.708;9.026;2022-12-31T01:09:28;12.30;99.90
15288;DHT22;7745;48.708;9.026;2022-12-31T01:11:55;12.20;99.90
15288;DHT22;7745;48.708;9.026;2022-12-31T01:14:24;12.20;99.90
15288;DHT22;7745;48.708;9.026;2022-12-31T01:16:51;12.20;99.90
15288;DHT22;7745;48.708;9.026;2022-12-31T01:19:20;12.20;99.90
15288;DHT22;7745;48.708;9.026;2022-12-31T01:21:49;12.20;99.90
15288;DHT22;7745;48.708;9.026;2022-12-31T01:24:16;12.20;99.90
15288;DHT22;7745;48.708;9.026;2022-12-31T01:26:43;12.30;99.90
15288;DHT22;7745;48.708;9.026;2022-12-31T01:29:11;12.30;99.90
15288;DHT22;7745;48.708;9.026;2022-12-31T01:31:40;12.30;99.90
15288;DHT22;7745;48.708;9.026;2022-12-31T01:34:07;12.20;99.90
15288;DHT22;7745;48.708;9.026;2022-12-31T01:36:35;12.20;99.90
15288;DHT22;7745;48.708;9.026;2022-12-31T01:39:04;12.30;99.90
15288;DHT22;7745;48.708;9.026;2022-12-31T01:41:33;12.30;99.90
15288;DHT22;7745;48.708;9.026;2022-12-31T01:44:02;12.30;99.90
15288;DHT22;7745;48.708;9.026;2022-12-31T01:46:52;12.40;99.90
15288;DHT22;7745;48.708;9.026;2022-12-31T01:49:24;12.40;99.90
15288;DHT22;7745;48.708;9.026;2022-12-31T01:51:56;12.50;99.90
15288;DHT22;7745;48.708;9.026;2022-12-31T01:54:27;12.20;99.90
15288;DHT22;7745;48.708;9.026;2022-12-31T01:56:55;12.30;99.90
15288;DHT22;7745;48.708;9.026;2022-12-31T01:59:25;12.20;99.90
15288;DHT22;7745;48.708;9.026;2022-12-31T02:01:54;12.80;99.90
15288;DHT22;7745;48.708;9.026;2022-12-31T02:04:23;12.20;99.90
15288;DHT22;7745;48.708;9.026;2022-12-31T02:06:54;12.10;99.90
15288;DHT22;7745;48.708;9.026;2022-12-31T02:09:21;12.10;99.90
15288;DHT22;7745;48.708;9.026;2022-12-31T02:11:48;12.10;99.90
15288;DHT22;7745;48.708;9.026;2022-12-31T02:14:18;12.20;99.90
15288;DHT22;7745;48.708;9.026;2022-12-31T02:16:52;12.00;99.90
15288;DHT22;7745;48.708;9.026;2022-12-31T02:20:03;12.50;99.90
15288;DHT22;7745;48.708;9.026;2022-12-31T02:23:05;12.10;99.90
15288;DHT22;7745;48.708;9.026;2022-12-31T02:25:58;12.20;99.90
15288;DHT22;7745;48.708;9.026;2022-12-31T02:28:45;12.50;99.90
15288;DHT22;7745;48.708;9.026;2022-12-31T02:31:24;12.30;99.90
15288;DHT22;7745;48.708;9.026;2022-12-31T02:33:56;12.40;99.90
15288;DHT22;7745;48.708;9.026;2022-12-31T02:36:30;12.70;99.90
15288;DHT22;7745;48.708;9.026;2022-12-31T02:39:00;12.70;99.90
15288;DHT22;7745;48.708;9.026;2022-12-31T02:41:28;12.70;99.90
15288;DHT22;7745;48.708;9.026;2022-12-31T02:44:23;12.60;99.90
15288;DHT22;7745;48.708;9.026;2022-12-31T02:47:04;12.60;99.90
15288;DHT22;7745;48.708;9.026;2022-12-31T02:49:41;12.60;99.90
15288;DHT22;7745;48.708;9.026;2022-12-31T02:52:15;12.70;99.90
15288;DHT22;7745;48.708;9.026;2022-12-31T02:54:49;12.60;99.90
15288;DHT22;7745;48.708;9.026;2022-12-31T02:57:23;12.70;99.90
15288;DHT22;7745;48.708;9.026;2022-12-31T02:59:56;12.70;99.90
15288;DHT22;7745;48.708;9.026;2022-12-31T03:02:45;12.80;99.90
15288;DHT22;7745;48.708;9.026;2022-12-31T03:05:13;12.80;99.90
15288;DHT22;7745;48.708;9.026;2022-12-31T03:07:41;12.80;99.90
15288;DHT22;7745;48.708;9.026;2022-12-31T03:10:09;13.20;99.90
15288;DHT22;7745;48.708;9.026;2022-12-31T03:12:36;13.00;99.90
15288;DHT22;7745;48.708;9.026;2022-12-31T03:15:13;12.90;99.90
15288;DHT22;7745;48.708;9.026;2022-12-31T03:17:50;12.80;99.90
15288;DHT22;7745;48.708;9.026;2022-12-31T03:20:18;12.70;99.90
15288;DHT22;7745;48.708;9.026;2022-12-31T03:23:05;12.90;99.90
15288;DHT22;7745;48.708;9.026;2022-12-31T03:25:32;12.80;99.90
15288;DHT22;7745;48.708;9.026;2022-12-31T03:27:58;13.00;99.90
15288;DHT22;7745;48.708;9.026;2022-12-31T03:30:26;13.10;99.90
15288;DHT22;7745;48.708;9.026;2022-12-31T03:32:54;13.10;99.90
15288;DHT22;7745;48.708;9.026;2022-12-31T03:35:22;13.20;99.90
15288;DHT22;7745;48.708;9.026;2022-12-31T03:37:50;13.00;99.90
15288;DHT22;7745;48.708;9.026;2022-12-31T03:40:20;13.10;99.90
15288;DHT22;7745;48.708;9.026;2022-12-31T03:42:47;13.10;99.90
15288;DHT22;7745;48.708;9.026;2022-12-31T03:45:14;13.10;99.90
15288;DHT22;7745;48.708;9.026;2022-12-31T03:47:42;13.00;99.90
15288;DHT22;7745;48.708;9.026;2022-12-31T03:50:12;13.50;99.90
15288;DHT22;7745;48.708;9.026;2022-12-31T03:52:39;13.10;99.90
15288;DHT22;7745;48.708;9.026;2022-12-31T03:55:07;13.00;99.90
15288;DHT22;7745;48.708;9.026;2022-12-31T03:57:34;13.00;99.90
15288;DHT22;7745;48.708;9.026;2022-12-31T04:00:01;12.90;99.90
15288;DHT22;7745;48.708;9.026;2022-12-31T04:02:28;12.90;99.90
15288;DHT22;7745;48.708;9.026;2022-12-31T04:04:55;13.10;99.90
15288;DHT22;7745;48.708;9.026;2022-12-31T04:07:24;13.00;99.90
15288;DHT22;7745;48.708;9.026;2022-12-31T04:09:50;13.20;99.90
15288;DHT22;7745;48.708;9.026;2022-12-31T04:12:17;13.10;99.90
15288;DHT22;7745;48.708;9.026;2022-12-31T04:14:44;13.10;99.90
15288;DHT22;7745;48.708;9.026;2022-12-31T04:17:11;13.50;99.90
15288;DHT22;7745;48.708;9.026;2022-12-31T04:19:38;13.20;99.90
15288;DHT22;7745;48.708;9.026;2022-12-31T04:22:12;13.20;99.90
15288;DHT22;7745;48.708;9.026;2022-12-31T04:24:40;13.10;99.90
15288;DHT22;7745;48.708;9.026;2022-12-31T04:27:07;13.10;99.90
15288;DHT22;7745;48.708;9.026;2022-12-31T04:29:34;13.20;99.90
15288;DHT22;7745;48.708;9.026;2022-12-31T04:32:01;13.20;99.90
15288;DHT22;7745;48.708;9.026;2022-12-31T04:34:28;13.30;99.90
15288;DHT22;7745;48.708;9.026;2022-12-31T04:36:55;13.10;99.90
15288;DHT22;7745;48.708;9.026;2022-12-31T04:39:22;13.10;99.90
15288;DHT22;7745;48.708;9.026;2022-12-31T04:41:51;13.10;99.90
15288;DHT22;7745;48.708;9.026;2022-12-31T04:44:18;13.10;99.90
15288;DHT22;7745;48.708;9.026;2022-12-31T04:46:46;13.20;99.90
15288;DHT22;7745;48.708;9.026;2022-12-31T04:49:12;13.20;99.90
15288;DHT22;7745;48.708;9.026;2022-12-31T04:51:39;13.40;99.90
15288;DHT22;7745;48.708;9.026;2022-12-31T04:54:06;13.40;99.90
15288;DHT22;7745;48.708;9.026;2022-12-31T04:56:33;13.50;99.90
15288;DHT22;7745;48.708;9.026;2022-12-31T04:59:02;13.50;99.90
15288;DHT22;7745;48.708;9.026;2022-12-31T05:01:29;13.40;99.90
15288;DHT22;7745;48.708;9.026;2022-12-31T05:03:57;13.40;99.90
15288;DHT22;7745;48.708;9.026;2022-12-31T05:06:24;13.40;99.90
15288;DHT22;7745;48.708;9.026;2022-12-31T05:08:51;13.40;99.90
15288;DHT22;7745;48.708;9.026;2022-12-31T05:11:17;13.40;99.90
15288;DHT22;7745;48.708;9.026;2022-12-31T05:13:45;13.50;99.90
15288;DHT22;7745;48.708;9.026;2022-12-31T05:16:13;13.60;99.90
15288;DHT22;7745;48.708;9.026;2022-12-31T05:18:40;13.40;99.90
15288;DHT22;7745;48.708;9.026;2022-12-31T05:21:07;13.50;99.90
15288;DHT22;7745;48.708;9.026;2022-12-31T05:23:33;13.40;99.90
15288;DHT22;7745;48.708;9.026;2022-12-31T05:26:00;13.30;99.90
15288;DHT22;7745;48.708;9.026;2022-12-31T05:28:27;13.40;99.90
15288;DHT22;7745;48.708;9.026;2022-12-31T05:30:54;13.50;99.90
15288;DHT22;7745;48.708;9.026;2022-12-31T05:33:22;13.40;99.90
15288;DHT22;7745;48.708;9.026;2022-12-31T05:35:49;13.60;99.90
15288;DHT22;7745;48.708;9.026;2022-12-31T05:38:16;13.50;99.90
15288;DHT22;7745;48.708;9.026;2022-12-31T05:40:43;13.60;99.90
15288;DHT22;7745;48.708;9.026;2022-12-31T05:43:10;13.50;99.90
15288;DHT22;7745;48.708;9.026;2022-12-31T05:45:37;13.60;99.90
15288;DHT22;7745;48.708;9.026;2022-12-31T05:48:04;13.60;99.90
15288;DHT22;7745;48.708;9.026;2022-12-31T05:50:32;13.60;99.90
15288;DHT22;7745;48.708;9.026;2022-12-31T05:52:59;13.50;99.90
15288;DHT22;7745;48.708;9.026;2022-12-31T05:55:26;13.60;99.90
15288;DHT22;7745;48.708;9.026;2022-12-31T05:57:53;13.50;99.90
15288;DHT22;7745;48.708;9.026;2022-12-31T06:00:20;13.60;99.90
15288;DHT22;7745;48.708;9.026;2022-12-31T06:02:47;13.30;99.90
15288;DHT22;7745;48.708;9.026;2022-12-31T06:05:14;13.30;99.90
15288;DHT22;7745;48.708;9.026;2022-12-31T06:07:42;13.30;99.90
15288;DHT22;7745;48.708;9.026;2022-12-31T06:10:09;13.20;99.90
15288;DHT22;7745;48.708;9.026;2022-12-31T06:12:36;13.10;99.90
15288;DHT22;7745;48.708;9.026;2022-12-31T06:15:03;13.10;99.90
15288;DHT22;7745;48.708;9.026;2022-12-31T06:17:30;13.10;99.90
15288;DHT22;7745;48.708;9.026;2022-12-31T06:19:58;13.00;99.90
15288;DHT22;7745;48.708;9.026;2022-12-31T06:22:25;13.00;99.90
15288;DHT22;7745;48.708;9.026;2022-12-31T06:24:53;12.90;99.90
15288;DHT22;7745;48.708;9.026;2022-12-31T06:27:20;12.90;99.90
15288;DHT22;7745;48.708;9.026;2022-12-31T06:29:47;12.80;99.90
15288;DHT22;7745;48.708;9.026;2022-12-31T06:32:15;12.90;99.90
15288;DHT22;7745;48.708;9.026;2022-12-31T06:34:42;12.90;99.90
15288;DHT22;7745;48.708;9.026;2022-12-31T06:37:09;13.00;99.90
15288;DHT22;7745;48.708;9.026;2022-12-31T06:39:36;12.80;99.90
15288;DHT22;7745;48.708;9.026;2022-12-31T06:42:04;12.80;99.90
15288;DHT22;7745;48.708;9.026;2022-12-31T06:44:31;12.70;99.90
15288;DHT22;7745;48.708;9.026;2022-12-31T06:46:59;12.60;99.90
15288;DHT22;7745;48.708;9.026;2022-12-31T06:49:26;12.70;99.90
15288;DHT22;7745;48.708;9.026;2022-12-31T06:51:52;12.70;99.90
15288;DHT22;7745;48.708;9.026;2022-12-31T06:54:19;12.80;99.90
15288;DHT22;7745;48.708;9.026;2022-12-31T06:56:47;12.60;99.90
15288;DHT22;7745;48.708;9.026;2022-12-31T06:59:34;12.60;99.90
15288;DHT22;7745;48.708;9.026;2022-12-31T07:02:13;12.60;99.90
15288;DHT22;7745;48.708;9.026;2022-12-31T07:05:12;12.60;99.90
15288;DHT22;7745;48.708;9.026;2022-12-31T07:07:51;12.80;99.90
15288;DHT22;7745;48.708;9.026;2022-12-31T07:10:27;12.60;99.90
15288;DHT22;7745;48.708;9.026;2022-12-31T07:13:13;12.50;99.90
15288;DHT22;7745;48.708;9.026;2022-12-31T07:15:54;12.40;99.90
15288;DHT22;7745;48.708;9.026;2022-12-31T07:18:27;12.50;99.90
15288;DHT22;7745;48.708;9.026;2022-12-31T07:20:58;12.50;99.90
15288;DHT22;7745;48.708;9.026;2022-12-31T07:23:25;12.60;99.90
15288;DHT22;7745;48.708;9.026;2022-12-31T07:25:56;12.60;99.90
15288;DHT22;7745;48.708;9.026;2022-12-31T07:28:39;12.60;99.90
15288;DHT22;7745;48.708;9.026;2022-12-31T07:31:19;12.60;99.90
15288;DHT22;7745;48.708;9.026;2022-12-31T07:33:56;12.70;99.90
15288;DHT22;7745;48.708;9.026;2022-12-31T07:36:40;12.70;99.90
15288;DHT22;7745;48.708;9.026;2022-12-31T07:39:13;12.70;99.90
15288;DHT22;7745;48.708;9.026;2022-12-31T07:41:50;12.80;99.90
15288;DHT22;7745;48.708;9.026;2022-12-31T07:44:35;13.20;99.90
15288;DHT22;7745;48.708;9.026;2022-12-31T07:47:18;12.80;99.90
15288;DHT22;7745;48.708;9.026;2022-12-31T07:49:46;13.10;99.90
15288;DHT22;7745;48.708;9.026;2022-12-31T07:52:13;12.80;99.90
15288;DHT22;7745;48.708;9.026;2022-12-31T07:54:40;12.80;99.90
15288;DHT22;7745;48.708;9.026;2022-12-31T07:57:08;13.20;99.90
15288;DHT22;7745;48.708;9.026;2022-12-31T07:59:43;13.30;99.90
15288;DHT22;7745;48.708;9.026;2022-12-31T08:02:20;13.00;99.90
15288;DHT22;7745;48.708;9.026;2022-12-31T08:04:55;12.90;99.90
15288;DHT22;7745;48.708;9.026;2022-12-31T08:07:33;13.10;99.90
15288;DHT22;7745;48.708;9.026;2022-12-31T08:10:07;13.10;99.90
15288;DHT22;7745;48.708;9.026;2022-12-31T08:12:36;13.20;99.90
15288;DHT22;7745;48.708;9.026;2022-12-31T08:15:11;13.20;99.90
15288;DHT22;7745;48.708;9.026;2022-12-31T08:17:40;13.20;99.90
15288;DHT22;7745;48.708;9.026;2022-12-31T08:20:12;13.30;99.90
15288;DHT22;7745;48.708;9.026;2022-12-31T08:22:53;13.30;99.90
15288;DHT22;7745;48.708;9.026;2022-12-31T08:25:29;13.50;99.90
15288;DHT22;7745;48.708;9.026;2022-12-31T08:28:02;13.50;99.90
15288;DHT22;7745;48.708;9.026;2022-12-31T08:30:38;13.50;99.90
15288;DHT22;7745;48.708;9.026;2022-12-31T08:33:13;13.50;99.90
15288;DHT22;7745;48.708;9.026;2022-12-31T08:35:53;13.60;99.90
15288;DHT22;7745;48.708;9.026;2022-12-31T08:38:28;14.00;99.90
15288;DHT22;7745;48.708;9.026;2022-12-31T08:41:05;13.80;99.90
15288;DHT22;7745;48.708;9.026;2022-12-31T08:43:46;13.80;99.90
15288;DHT22;7745;48.708;9.026;2022-12-31T08:46:19;14.10;99.90
15288;DHT22;7745;48.708;9.026;2022-12-31T08:48:50;14.10;99.90
15288;DHT22;7745;48.708;9.026;2022-12-31T08:51:20;13.90;99.90
15288;DHT22;7745;48.708;9.026;2022-12-31T08:53:48;13.90;99.90
15288;DHT22;7745;48.708;9.026;2022-12-31T08:56:24;13.90;99.90
15288;DHT22;7745;48.708;9.026;2022-12-31T08:58:59;14.10;99.90
15288;DHT22;7745;48.708;9.026;2022-12-31T09:01:38;14.20;99.90
15288;DHT22;7745;48.708;9.026;2022-12-31T09:04:15;14.20;99.90
15288;DHT22;7745;48.708;9.026;2022-12-31T09:06:49;14.00;99.90
15288;DHT22;7745;48.708;9.026;2022-12-31T09:09:25;14.30;99.90
15288;DHT22;7745;48.708;9.026;2022-12-31T09:11:59;14.10;99.90
15288;DHT22;7745;48.708;9.026;2022-12-31T09:15:02;14.30;99.90
15288;DHT22;7745;48.708;9.026;2022-12-31T09:18:10;14.20;99.90
15288;DHT22;7745;48.708;9.026;2022-12-31T09:30:49;14.60;99.90
15288;DHT22;7745;48.708;9.026;2022-12-31T09:33:28;14.90;99.90
15288;DHT22;7745;48.708;9.026;2022-12-31T09:35:59;14.90;99.90
15288;DHT22;7745;48.708;9.026;2022-12-31T09:38:32;14.90;99.90
15288;DHT22;7745;48.708;9.026;2022-12-31T09:41:15;15.10;99.90
15288;DHT22;7745;48.708;9.026;2022-12-31T09:44:32;15.10;99.90
15288;DHT22;7745;48.708;9.026;2022-12-31T09:53:43;15.30;99.90
15288;DHT22;7745;48.708;9.026;2022-12-31T09:56:28;15.20;99.90
15288;DHT22;7745;48.708;9.026;2022-12-31T10:22:36;15.50;99.90
15288;DHT22;7745;48.708;9.026;2022-12-31T10:29:23;15.50;99.90
15288;DHT22;7745;48.708;9.026;2022-12-31T10:32:21;15.70;99.90
15288;DHT22;7745;48.708;9.026;2022-12-31T10:58:14;16.10;99.90
15288;DHT22;7745;48.708;9.026;2022-12-31T11:00:53;16.10;99.90
15288;DHT22;7745;48.708;9.026;2022-12-31T11:03:58;16.20;99.90
15288;DHT22;7745;48.708;9.026;2022-12-31T11:10:11;16.20;99.90
15288;DHT22;7745;48.708;9.026;2022-12-31T11:19:58;16.40;99.90
15288;DHT22;7745;48.708;9.026;2022-12-31T11:23:20;16.60;99.90
15288;DHT22;7745;48.708;9.026;2022-12-31T11:26:11;16.60;99.90
15288;DHT22;7745;48.708;9.026;2022-12-31T11:32:05;16.60;99.90
15288;DHT22;7745;48.708;9.026;2022-12-31T11:34:57;16.70;99.90
15288;DHT22;7745;48.708;9.026;2022-12-31T11:37:34;16.70;99.90
15288;DHT22;7745;48.708;9.026;2022-12-31T11:43:01;16.80;99.90
15288;DHT22;7745;48.708;9.026;2022-12-31T11:45:49;16.90;99.90
15288;DHT22;7745;48.708;9.026;2022-12-31T11:48:24;16.80;99.90
15288;DHT22;7745;48.708;9.026;2022-12-31T11:51:09;16.80;99.90
15288;DHT22;7745;48.708;9.026;2022-12-31T11:53:59;16.80;99.90
15288;DHT22;7745;48.708;9.026;2022-12-31T11:56:32;16.80;99.90
15288;DHT22;7745;48.708;9.026;2022-12-31T11:59:01;17.00;99.90
15288;DHT22;7745;48.708;9.026;2022-12-31T12:01:31;16.90;99.90
15288;DHT22;7745;48.708;9.026;2022-12-31T12:03:59;16.90;99.90
15288;DHT22;7745;48.708;9.026;2022-12-31T12:06:31;16.90;99.90
15288;DHT22;7745;48.708;9.026;2022-12-31T12:09:02;16.90;99.90
15288;DHT22;7745;48.708;9.026;2022-12-31T12:11:33;16.90;99.90
15288;DHT22;7745;48.708;9.026;2022-12-31T12:14:00;17.10;99.90
15288;DHT22;7745;48.708;9.026;2022-12-31T12:16:43;17.00;99.90
15288;DHT22;7745;48.708;9.026;2022-12-31T12:19:16;17.10;99.90
15288;DHT22;7745;48.708;9.026;2022-12-31T12:21:46;17.10;99.90
15288;DHT22;7745;48.708;9.026;2022-12-31T12:24:19;17.10;99.90
15288;DHT22;7745;48.708;9.026;2022-12-31T12:26:46;17.10;99.90
15288;DHT22;7745;48.708;9.026;2022-12-31T12:29:17;17.10;99.90
15288;DHT22;7745;48.708;9.026;2022-12-31T12:31:53;17.00;99.90
15288;DHT22;7745;48.708;9.026;2022-12-31T12:34:23;17.10;99.90
15288;DHT22;7745;48.708;9.026;2022-12-31T12:36:51;17.10;99.90
15288;DHT22;7745;48.708;9.026;2022-12-31T12:39:20;17.10;99.90
15288;DHT22;7745;48.708;9.026;2022-12-31T12:41:59;17.30;99.90
15288;DHT22;7745;48.708;9.026;2022-12-31T12:44:26;17.40;99.90
15288;DHT22;7745;48.708;9.026;2022-12-31T12:46:54;17.30;99.90
15288;DHT22;7745;48.708;9.026;2022-12-31T12:49:23;17.30;99.90
15288;DHT22;7745;48.708;9.026;2022-12-31T12:52:13;17.30;99.90
15288;DHT22;7745;48.708;9.026;2022-12-31T12:54:58;17.40;99.90
15288;DHT22;7745;48.708;9.026;2022-12-31T12:57:45;17.40;99.90
15288;DHT22;7745;48.708;9.026;2022-12-31T13:00:33;17.40;99.90
15288;DHT22;7745;48.708;9.026;2022-12-31T13:03:25;17.40;99.90
15288;DHT22;7745;48.708;9.026;2022-12-31T13:06:12;17.30;99.90
15288;DHT22;7745;48.708;9.026;2022-12-31T13:09:02;17.20;99.90
15288;DHT22;7745;48.708;9.026;2022-12-31T13:11:38;17.20;99.90
15288;DHT22;7745;48.708;9.026;2022-12-31T13:14:16;17.30;99.90
15288;DHT22;7745;48.708;9.026;2022-12-31T13:16:51;17.30;99.90
15288;DHT22;7745;48.708;9.026;2022-12-31T13:19:29;17.10;99.90
15288;DHT22;7745;48.708;9.026;2022-12-31T13:22:03;17.00;99.90
15288;DHT22;7745;48.708;9.026;2022-12-31T13:24:50;17.20;99.90
15288;DHT22;7745;48.708;9.026;2022-12-31T13:27:24;17.10;99.90
15288;DHT22;7745;48.708;9.026;2022-12-31T13:29:55;17.10;99.90
15288;DHT22;7745;48.708;9.026;2022-12-31T13:32:35;17.10;99.90
15288;DHT22;7745;48.708;9.026;2022-12-31T13:35:21;17.00;99.90
15288;DHT22;7745;48.708;9.026;2022-12-31T13:37:50;16.90;99.90
15288;DHT22;7745;48.708;9.026;2022-12-31T13:40:24;16.90;99.90
15288;DHT22;7745;48.708;9.026;2022-12-31T13:42:56;16.80;99.90
15288;DHT22;7745;48.708;9.026;2022-12-31T13:45:27;16.90;99.90
15288;DHT22;7745;48.708;9.026;2022-12-31T13:47:59;16.80;99.90
15288;DHT22;7745;48.708;9.026;2022-12-31T13:50:28;16.60;99.90
15288;DHT22;7745;48.708;9.026;2022-12-31T13:52:59;16.60;99.90
15288;DHT22;7745;48.708;9.026;2022-12-31T13:55:33;16.60;99.90
15288;DHT22;7745;48.708;9.026;2022-12-31T13:58:08;16.60;99.90
15288;DHT22;7745;48.708;9.026;2022-12-31T14:00:40;16.60;99.90
15288;DHT22;7745;48.708;9.026;2022-12-31T14:03:12;16.50;99.90
15288;DHT22;7745;48.708;9.026;2022-12-31T14:05:44;16.40;99.90
15288;DHT22;7745;48.708;9.026;2022-12-31T14:08:12;16.40;99.90
15288;DHT22;7745;48.708;9.026;2022-12-31T14:10:50;16.40;99.90
15288;DHT22;7745;48.708;9.026;2022-12-31T14:13:34;16.30;99.90
15288;DHT22;7745;48.708;9.026;2022-12-31T14:16:14;16.50;99.90
15288;DHT22;7745;48.708;9.026;2022-12-31T14:18:46;16.40;99.90
15288;DHT22;7745;48.708;9.026;2022-12-31T14:21:22;16.50;99.90
15288;DHT22;7745;48.708;9.026;2022-12-31T14:24:00;16.50;99.90
15288;DHT22;7745;48.708;9.026;2022-12-31T14:26:33;16.50;99.90
15288;DHT22;7745;48.708;9.026;2022-12-31T14:29:11;16.60;99.90
15288;DHT22;7745;48.708;9.026;2022-12-31T14:32:07;16.50;99.90
15288;DHT22;7745;48.708;9.026;2022-12-31T14:34:43;16.60;99.90
15288;DHT22;7745;48.708;9.026;2022-12-31T14:37:20;16.50;99.90
15288;DHT22;7745;48.708;9.026;2022-12-31T14:39:59;16.50;99.90
15288;DHT22;7745;48.708;9.026;2022-12-31T14:42:36;16.60;99.90
15288;DHT22;7745;48.708;9.026;2022-12-31T14:45:20;16.60;99.90
15288;DHT22;7745;48.708;9.026;2022-12-31T14:47:54;16.40;99.90
15288;DHT22;7745;48.708;9.026;2022-12-31T14:50:24;16.60;99.90
15288;DHT22;7745;48.708;9.026;2022-12-31T14:52:53;16.40;99.90
15288;DHT22;7745;48.708;9.026;2022-12-31T14:55:27;16.40;99.90
15288;DHT22;7745;48.708;9.026;2022-12-31T14:57:57;16.30;99.90
15288;DHT22;7745;48.708;9.026;2022-12-31T15:00:34;16.20;99.90
15288;DHT22;7745;48.708;9.026;2022-12-31T15:03:04;16.30;99.90
15288;DHT22;7745;48.708;9.026;2022-12-31T15:05:33;16.10;99.90
15288;DHT22;7745;48.708;9.026;2022-12-31T15:08:20;15.80;99.90
15288;DHT22;7745;48.708;9.026;2022-12-31T15:11:01;15.90;99.90
15288;DHT22;7745;48.708;9.026;2022-12-31T15:13:41;15.80;99.90
15288;DHT22;7745;48.708;9.026;2022-12-31T15:16:19;15.90;99.90
15288;DHT22;7745;48.708;9.026;2022-12-31T15:19:09;15.70;99.90
15288;DHT22;7745;48.708;9.026;2022-12-31T15:21:50;15.60;99.90
15288;DHT22;7745;48.708;9.026;2022-12-31T15:24:20;15.50;99.90
15288;DHT22;7745;48.708;9.026;2022-12-31T15:26:50;15.20;99.90
15288;DHT22;7745;48.708;9.026;2022-12-31T15:29:41;15.40;99.90
15288;DHT22;7745;48.708;9.026;2022-12-31T15:32:42;15.40;99.90
15288;DHT22;7745;48.708;9.026;2022-12-31T15:36:25;15.30;99.90
15288;DHT22;7745;48.708;9.026;2022-12-31T15:42:26;15.00;99.90
15288;DHT22;7745;48.708;9.026;2022-12-31T15:44:58;14.80;99.90
15288;DHT22;7745;48.708;9.026;2022-12-31T15:47:37;14.80;99.90
15288;DHT22;7745;48.708;9.026;2022-12-31T15:50:20;14.60;99.90
15288;DHT22;7745;48.708;9.026;2022-12-31T15:52:51;14.60;99.90
15288;DHT22;7745;48.708;9.026;2022-12-31T15:55:26;14.50;99.90
15288;DHT22;7745;48.708;9.026;2022-12-31T15:58:18;14.40;99.90
15288;DHT22;7745;48.708;9.026;2022-12-31T16:01:05;14.40;99.90
15288;DHT22;7745;48.708;9.026;2022-12-31T16:03:54;14.30;99.90
15288;DHT22;7745;48.708;9.026;2022-12-31T16:06:31;14.20;99.90
15288;DHT22;7745;48.708;9.026;2022-12-31T16:09:21;14.10;99.90
15288;DHT22;7745;48.708;9.026;2022-12-31T16:12:01;14.20;99.90
15288;DHT22;7745;48.708;9.026;2022-12-31T16:14:41;14.10;99.90
15288;DHT22;7745;48.708;9.026;2022-12-31T16:17:37;14.20;99.90
15288;DHT22;7745;48.708;9.026;2022-12-31T16:20:39;14.20;99.90
15288;DHT22;7745;48.708;9.026;2022-12-31T16:23:45;14.20;99.90
15288;DHT22;7745;48.708;9.026;2022-12-31T16:26:34;14.20;99.90
15288;DHT22;7745;48.708;9.026;2022-12-31T16:29:30;14.10;99.90
15288;DHT22;7745;48.708;9.026;2022-12-31T16:32:46;14.20;99.90
15288;DHT22;7745;48.708;9.026;2022-12-31T16:35:59;14.10;99.90
15288;DHT22;7745;48.708;9.026;2022-12-31T16:38:43;14.00;99.90
15288;DHT22;7745;48.708;9.026;2022-12-31T16:41:24;14.00;99.90
15288;DHT22;7745;48.708;9.026;2022-12-31T16:44:03;13.80;99.90
15288;DHT22;7745;48.708;9.026;2022-12-31T16:46:34;13.70;99.90
15288;DHT22;7745;48.708;9.026;2022-12-31T16:49:18;13.70;99.90
15288;DHT22;7745;48.708;9.026;2022-12-31T16:51:46;13.60;99.90
15288;DHT22;7745;48.708;9.026;2022-12-31T16:54:18;13.50;99.90
15288;DHT22;7745;48.708;9.026;2022-12-31T16:56:50;13.60;99.90
15288;DHT22;7745;48.708;9.026;2022-12-31T16:59:23;13.30;99.90
15288;DHT22;7745;48.708;9.026;2022-12-31T17:01:51;13.30;99.90
15288;DHT22;7745;48.708;9.026;2022-12-31T17:04:28;13.30;99.90
15288;DHT22;7745;48.708;9.026;2022-12-31T17:07:34;13.20;99.90
15288;DHT22;7745;48.708;9.026;2022-12-31T17:10:31;13.10;99.90
15288;DHT22;7745;48.708;9.026;2022-12-31T17:13:08;13.00;99.90
15288;DHT22;7745;48.708;9.026;2022-12-31T17:15:47;13.00;99.90
15288;DHT22;7745;48.708;9.026;2022-12-31T17:18:21;12.90;99.90
15288;DHT22;7745;48.708;9.026;2022-12-31T17:20:55;12.90;99.90
15288;DHT22;7745;48.708;9.026;2022-12-31T17:23:48;12.90;99.90
15288;DHT22;7745;48.708;9.026;2022-12-31T17:26:35;12.90;99.90
15288;DHT22;7745;48.708;9.026;2022-12-31T17:29:37;12.90;99.90
15288;DHT22;7745;48.708;9.026;2022-12-31T17:32:34;12.80;99.90
15288;DHT22;7745;48.708;9.026;2022-12-31T17:35:33;12.90;99.90
15288;DHT22;7745;48.708;9.026;2022-12-31T17:38:45;12.90;99.90
15288;DHT22;7745;48.708;9.026;2022-12-31T17:41:36;12.90;99.90
15288;DHT22;7745;48.708;9.026;2022-12-31T17:44:06;12.90;99.90
15288;DHT22;7745;48.708;9.026;2022-12-31T17:46:38;12.80;99.90
15288;DHT22;7745;48.708;9.026;2022-12-31T17:49:11;12.90;99.90
15288;DHT22;7745;48.708;9.026;2022-12-31T17:51:41;12.80;99.90
15288;DHT22;7745;48.708;9.026;2022-12-31T17:54:24;12.70;99.90
15288;DHT22;7745;48.708;9.026;2022-12-31T17:57:02;12.70;99.90
15288;DHT22;7745;48.708;9.026;2022-12-31T17:59:35;12.70;99.90
15288;DHT22;7745;48.708;9.026;2022-12-31T18:02:08;12.60;99.90